Time;durP1;ratioP1;P1;durP2;ratioP2;P2;SDS_P1;SDS_P2;PMS_P1;PMS_P2;Temp;Humidity;BMP_temperature;BMP_pressure;BME280_temperature;BME280_humidity;BME280_pressure;Samples;Min_cycle;Max_cycle;Signal;HPM_P1;HPM_P2
2022/08/19 00:01:45;;;;;;;17.65;11.18;;;;;;;20.55;74.35;100863.00;5075494;28;20045;-54
2022/08/19 00:04:14;;;;;;;17.92;11.07;;;;;;;20.48;74.26;100869.28;5074880;28;20090;-53
2022/08/19 00:06:43;;;;;;;19.52;10.45;;;;;;;20.42;74.49;100863.91;5074045;28;20044;-53
2022/08/19 00:09:13;;;;;;;20.48;10.68;;;;;;;20.46;74.52;100870.50;5075362;28;20068;-54
2022/08/19 00:11:41;;;;;;;20.02;10.60;;;;;;;20.45;74.48;100876.97;5075647;28;20045;-52
2022/08/19 00:14:11;;;;;;;22.02;10.70;;;;;;;20.39;74.80;100872.41;5075178;28;20083;-54
2022/08/19 00:16:39;;;;;;;15.75;10.70;;;;;;;20.41;75.43;100871.19;5075157;28;20063;-55
2022/08/19 00:19:07;;;;;;;18.77;11.02;;;;;;;20.38;75.47;100863.53;5074722;28;20044;-55
2022/08/19 00:21:39;;;;;;;22.67;11.80;;;;;;;20.38;75.99;100868.91;5074879;28;20399;-54
2022/08/19 00:24:08;;;;;;;20.10;12.27;;;;;;;20.30;75.65;100864.59;4952839;28;20079;-54
2022/08/19 00:26:36;;;;;;;20.90;11.75;;;;;;;20.29;76.22;100868.31;5057243;28;20040;-53
2022/08/19 00:29:04;;;;;;;19.20;12.13;;;;;;;20.24;76.50;100864.63;5073588;28;20052;-53
2022/08/19 00:31:31;;;;;;;25.15;12.00;;;;;;;20.16;76.84;100856.81;5074616;28;20072;-54
2022/08/19 00:33:58;;;;;;;19.98;11.95;;;;;;;20.06;77.01;100866.16;5074995;28;20052;-54
2022/08/19 00:36:25;;;;;;;19.92;12.20;;;;;;;20.10;76.84;100862.00;5074736;28;20045;-54
2022/08/19 00:38:52;;;;;;;22.40;12.00;;;;;;;20.02;77.50;100856.84;5073806;28;20049;-53
2022/08/19 00:41:21;;;;;;;19.98;12.80;;;;;;;20.03;77.95;100858.53;5074808;28;20044;-53
2022/08/19 00:44:10;;;;;;;20.92;12.60;;;;;;;20.01;78.23;100862.44;5073658;28;20379;-54
2022/08/19 00:46:41;;;;;;;19.45;12.57;;;;;;;19.97;78.56;100864.75;5068303;28;20056;-54
2022/08/19 00:49:14;;;;;;;27.23;12.57;;;;;;;19.94;78.40;100863.31;5074463;28;20494;-53
2022/08/19 00:51:45;;;;;;;22.02;13.15;;;;;;;19.91;77.91;100850.25;5074799;28;20505;-53
2022/08/19 00:54:14;;;;;;;26.35;13.25;;;;;;;19.89;77.44;100863.13;5074656;28;20110;-53
2022/08/19 00:56:42;;;;;;;23.40;13.50;;;;;;;19.83;77.99;100857.75;5073144;28;20051;-54
2022/08/19 00:59:09;;;;;;;21.42;13.65;;;;;;;19.82;78.41;100843.47;5074046;28;20045;-53
2022/08/19 01:01:38;;;;;;;22.65;13.82;;;;;;;19.77;78.83;100842.47;5073671;28;20036;-54
2022/08/19 01:04:06;;;;;;;26.17;14.25;;;;;;;19.80;78.47;100847.44;5074228;28;20056;-54
2022/08/19 01:06:35;;;;;;;26.70;13.07;;;;;;;19.78;79.39;100849.50;5074251;28;20110;-53
2022/08/19 01:09:02;;;;;;;31.70;13.80;;;;;;;19.81;79.54;100860.69;5074155;28;20055;-53
2022/08/19 01:11:33;;;;;;;28.65;14.00;;;;;;;19.72;79.73;100854.66;5074222;28;20048;-53
2022/08/19 01:13:59;;;;;;;27.15;14.25;;;;;;;19.72;79.25;100853.84;5073877;28;20527;-53
2022/08/19 01:16:29;;;;;;;23.52;14.32;;;;;;;19.70;79.55;100853.22;5074168;28;20106;-54
2022/08/19 01:18:56;;;;;;;25.27;14.57;;;;;;;19.73;79.50;100859.03;5074052;28;20098;-54
2022/08/19 01:21:33;;;;;;;27.40;14.43;;;;;;;19.69;80.05;100857.78;5072381;28;20056;-50
2022/08/19 01:24:00;;;;;;;24.02;14.10;;;;;;;19.66;79.86;100857.38;4957876;28;20068;-52
2022/08/19 01:26:27;;;;;;;27.30;14.98;;;;;;;19.63;79.53;100852.41;5073739;28;20181;-53
2022/08/19 01:28:57;;;;;;;27.45;15.85;;;;;;;19.56;80.21;100847.06;5073602;28;20469;-53
2022/08/19 01:31:30;;;;;;;32.58;14.75;;;;;;;19.56;80.38;100853.25;5073559;28;20456;-53
2022/08/19 01:33:57;;;;;;;23.92;14.98;;;;;;;19.56;80.46;100852.44;5073369;28;20422;-54
2022/08/19 01:39:09;;;;;;;26.73;15.18;;;;;;;19.49;80.17;100846.25;5110956;27;20383;-54
2022/08/19 01:41:36;;;;;;;27.83;15.88;;;;;;;19.50;79.74;100842.50;5111156;28;20078;-53
2022/08/19 01:44:04;;;;;;;25.85;15.65;;;;;;;19.55;80.41;100843.53;5111058;28;20040;-53
2022/08/19 01:46:32;;;;;;;27.58;15.45;;;;;;;19.43;80.12;100842.53;5111222;28;20077;-52
2022/08/19 01:49:00;;;;;;;28.55;15.43;;;;;;;19.45;79.86;100850.41;5107522;28;20085;-53
2022/08/19 01:51:26;;;;;;;28.00;15.48;;;;;;;19.45;80.01;100853.91;5111180;28;20052;-52
2022/08/19 01:53:54;;;;;;;25.17;16.20;;;;;;;19.36;80.67;100853.28;5107405;28;20039;-53
2022/08/19 01:56:20;;;;;;;22.38;15.65;;;;;;;19.39;80.89;100846.66;5111203;28;20055;-53
2022/08/19 01:59:09;;;;;;;22.55;16.00;;;;;;;19.42;80.75;100838.16;5110975;28;20075;-53
2022/08/19 02:01:36;;;;;;;25.63;16.70;;;;;;;19.33;80.30;100842.94;5111019;28;20075;-52
2022/08/19 02:04:03;;;;;;;24.83;15.88;;;;;;;19.24;81.25;100840.69;5109924;28;20493;-53
2022/08/19 02:06:29;;;;;;;26.27;16.67;;;;;;;19.28;80.76;100836.53;5110701;28;20048;-53
2022/08/19 02:08:57;;;;;;;25.23;16.35;;;;;;;19.24;80.86;100836.13;5110375;28;20500;-53
2022/08/19 02:11:27;;;;;;;27.77;17.13;;;;;;;19.16;81.11;100834.50;5110840;28;20534;-53
2022/08/19 02:13:55;;;;;;;34.75;18.38;;;;;;;19.06;81.38;100834.06;5110338;28;20081;-53
2022/08/19 02:16:22;;;;;;;29.45;17.50;;;;;;;19.06;81.37;100828.69;5110646;28;20117;-51
2022/08/19 02:18:49;;;;;;;28.92;18.13;;;;;;;19.11;81.73;100834.28;5110528;28;20040;-52
2022/08/19 02:21:18;;;;;;;28.63;17.88;;;;;;;19.09;82.31;100844.44;5110431;28;20135;-53
2022/08/19 02:23:46;;;;;;;30.90;17.90;;;;;;;19.02;82.20;100840.09;4985902;28;20052;-53
2022/08/19 02:26:13;;;;;;;28.30;18.02;;;;;;;18.94;82.62;100847.31;5110457;28;20097;-52
2022/08/19 02:28:41;;;;;;;33.42;19.27;;;;;;;18.99;82.18;100847.53;5108863;28;20066;-52
2022/08/19 02:31:11;;;;;;;36.28;19.10;;;;;;;19.06;81.85;100847.53;5109510;28;20054;-53
2022/08/19 02:33:38;;;;;;;31.88;21.42;;;;;;;19.08;82.06;100842.78;5110244;28;20047;-53
2022/08/19 02:36:07;;;;;;;33.90;21.55;;;;;;;19.09;81.96;100846.28;5110158;28;20550;-53
2022/08/19 02:38:34;;;;;;;35.85;20.40;;;;;;;19.01;82.01;100841.13;5109598;28;20102;-53
2022/08/19 02:41:06;;;;;;;31.70;21.38;;;;;;;19.05;81.78;100843.19;5109904;28;20051;-53
2022/08/19 02:43:36;;;;;;;31.50;21.17;;;;;;;19.04;81.94;100854.97;5110290;28;20124;-53
2022/08/19 02:46:21;;;;;;;33.20;21.15;;;;;;;19.05;82.61;100858.50;5109947;28;20048;-53
2022/08/19 02:48:50;;;;;;;42.15;21.50;;;;;;;19.01;83.11;100858.09;5106041;28;20402;-53
2022/08/19 02:51:21;;;;;;;35.28;22.15;;;;;;;18.92;83.10;100857.47;5096104;28;20055;-53
2022/08/19 02:53:48;;;;;;;37.38;21.73;;;;;;;18.96;83.43;100853.31;5096506;28;20043;-53
2022/08/19 02:56:15;;;;;;;36.85;21.63;;;;;;;18.95;83.66;100864.28;5088408;28;20105;-53
2022/08/19 02:58:42;;;;;;;32.80;21.55;;;;;;;18.92;83.61;100862.03;5096360;28;20044;-53
2022/08/19 03:01:11;;;;;;;35.15;21.70;;;;;;;18.90;83.84;100866.75;5096016;28;20378;-53
2022/08/19 03:03:37;;;;;;;37.65;21.70;;;;;;;18.88;84.24;100863.44;5094273;28;20040;-53
2022/08/19 03:06:12;;;;;;;41.72;21.85;;;;;;;18.88;84.01;100866.13;5095771;28;20083;-53
2022/08/19 03:08:42;;;;;;;35.97;22.27;;;;;;;18.88;83.81;100869.66;5096237;28;20044;-53
2022/08/19 03:11:14;;;;;;;41.47;23.42;;;;;;;18.94;83.88;100866.16;5095709;28;20105;-53
2022/08/19 03:13:43;;;;;;;42.45;27.20;;;;;;;19.10;83.36;100864.91;5094782;28;20138;-53
2022/08/19 03:16:10;;;;;;;41.70;24.55;;;;;;;19.04;83.79;100863.03;5095869;28;20071;-54
2022/08/19 03:18:38;;;;;;;38.13;23.83;;;;;;;18.96;84.06;100855.19;5095869;28;20043;-54
2022/08/19 03:21:06;;;;;;;36.33;24.02;;;;;;;18.93;84.13;100856.41;5094163;28;20040;-53
2022/08/19 03:23:33;;;;;;;47.85;23.10;;;;;;;18.88;84.15;100860.75;4968991;28;20044;-54
2022/08/19 03:26:05;;;;;;;36.03;23.33;;;;;;;18.94;83.93;100859.94;5095464;28;20040;-54
2022/08/19 03:28:32;;;;;;;41.13;24.70;;;;;;;18.92;83.32;100870.09;5095729;28;20473;-52
2022/08/19 03:31:04;;;;;;;37.65;24.50;;;;;;;18.81;83.41;100868.84;5094995;28;20076;-54
2022/08/19 03:33:32;;;;;;;45.80;25.33;;;;;;;18.82;83.51;100867.78;5095598;28;20055;-53
2022/08/19 03:36:09;;;;;;;41.75;27.13;;;;;;;18.94;82.94;100862.63;5095610;28;20048;-53
2022/08/19 03:38:41;;;;;;;43.17;25.85;;;;;;;18.95;82.91;100864.28;5095529;28;20047;-52
2022/08/19 03:41:11;;;;;;;48.63;28.48;;;;;;;18.98;82.61;100864.69;5095195;28;20097;-51
2022/08/19 03:43:40;;;;;;;41.92;26.63;;;;;;;18.93;83.09;100864.47;5094249;28;20048;-52
2022/08/19 03:46:11;;;;;;;43.35;26.55;;;;;;;18.90;82.88;100870.28;5095220;28;20040;-52
2022/08/19 03:48:39;;;;;;;49.03;28.42;;;;;;;18.91;82.87;100865.72;5095296;28;20053;-51
2022/08/19 03:51:08;;;;;;;49.10;28.77;;;;;;;18.93;82.89;100872.53;5093924;28;20068;-52
2022/08/19 03:53:35;;;;;;;48.72;28.85;;;;;;;18.84;83.38;100865.72;5095277;28;20048;-52
2022/08/19 03:56:02;;;;;;;57.45;32.42;;;;;;;18.95;82.82;100869.66;5095120;28;20123;-53
2022/08/19 03:58:30;;;;;;;53.50;31.45;;;;;;;18.85;83.52;100874.63;5091752;28;20264;-52
2022/08/19 04:00:57;;;;;;;56.55;32.47;;;;;;;18.87;82.85;100876.06;5093830;28;20109;-52
2022/08/19 04:03:26;;;;;;;53.92;32.60;;;;;;;18.79;83.53;100871.69;5094388;28;20123;-53
2022/08/19 04:05:53;;;;;;;57.15;33.55;;;;;;;18.76;83.81;100872.09;5094595;28;20066;-51
2022/08/19 04:08:20;;;;;;;59.53;32.75;;;;;;;18.64;84.49;100870.22;5094610;28;20393;-53
2022/08/19 04:10:48;;;;;;;62.10;32.63;;;;;;;18.56;84.67;100871.25;5093476;28;20122;-53
2022/08/19 04:13:16;;;;;;;56.97;31.75;;;;;;;18.54;85.33;100879.50;5094948;28;20077;-54
2022/08/19 04:15:46;;;;;;;61.60;33.47;;;;;;;18.64;85.06;100881.78;5093946;28;20071;-53
2022/08/19 04:18:13;;;;;;;67.10;35.28;;;;;;;18.67;84.59;100886.75;5094645;28;20050;-53
2022/08/19 04:20:44;;;;;;;67.90;37.33;;;;;;;18.58;84.56;100880.75;5094121;28;20091;-53
2022/08/19 04:23:12;;;;;;;73.07;36.47;;;;;;;18.61;84.53;100874.97;4969412;28;20374;-53
2022/08/19 04:25:42;;;;;;;69.03;36.05;;;;;;;18.54;85.07;100868.75;5094488;28;20082;-54
2022/08/19 04:28:12;;;;;;;58.58;35.25;;;;;;;18.52;85.23;100875.34;5094541;28;20500;-53
2022/08/19 04:30:44;;;;;;;63.40;35.53;;;;;;;18.52;85.15;100880.72;5094444;28;20044;-53
2022/08/19 04:33:11;;;;;;;;;;;;;;;18.59;84.97;100879.72;5094250;28;20046;-53
2022/08/19 04:35:41;;;;;;;68.35;36.58;;;;;;;18.58;85.00;100875.38;5094303;28;19970;-53
2022/08/19 04:38:09;;;;;;;59.30;35.63;;;;;;;18.50;84.97;100883.63;5093974;28;20413;-53
2022/08/19 04:43:29;;;;;;;67.15;36.20;;;;;;;18.52;85.01;100881.56;5094105;28;20078;-53
2022/08/19 04:45:56;;;;;;;68.57;38.20;;;;;;;18.50;85.26;100886.31;5093597;28;20040;-54
2022/08/19 04:48:26;;;;;;;62.38;38.17;;;;;;;18.52;85.15;100889.63;5093781;28;20040;-55
2022/08/19 04:50:58;;;;;;;73.85;38.83;;;;;;;18.53;85.40;100890.44;5092342;28;20044;-53
2022/08/19 04:53:28;;;;;;;69.88;38.40;;;;;;;18.51;85.77;100900.56;5093856;28;20535;-54
2022/08/19 04:55:56;;;;;;;72.65;41.42;;;;;;;18.56;85.02;100898.91;5066239;28;20056;-54
2022/08/19 04:58:25;;;;;;;64.88;41.42;;;;;;;18.54;84.88;100906.34;5093693;28;20036;-53
2022/08/19 05:00:52;;;;;;;76.47;44.72;;;;;;;18.44;85.40;100910.47;5093117;28;20044;-54
2022/08/19 05:03:20;;;;;;;68.20;42.78;;;;;;;18.37;85.74;100915.78;5089997;28;20058;-55
2022/08/19 05:05:48;;;;;;;72.68;44.78;;;;;;;18.34;85.82;100914.34;5089942;28;20040;-53
2022/08/19 05:08:19;;;;;;;76.88;45.10;;;;;;;18.25;85.85;100925.47;5093539;28;20036;-54
2022/08/19 05:10:48;;;;;;;74.67;45.33;;;;;;;18.28;86.06;100933.97;5093676;28;20044;-54
2022/08/19 05:13:17;;;;;;;77.57;46.05;;;;;;;18.38;85.79;100933.56;5093391;28;20812;-54
2022/08/19 05:15:55;;;;;;;82.93;47.28;;;;;;;18.55;85.32;100934.03;5093121;28;20044;-54
2022/08/19 05:23:58;;;;;;;85.40;49.03;;;;;;;18.44;86.29;100937.31;5013285;28;20562;-53
2022/08/19 05:26:26;;;;;;;79.50;50.10;;;;;;;18.60;85.83;100942.31;5083713;28;20050;-52
2022/08/19 05:28:54;;;;;;;82.55;50.35;;;;;;;18.49;86.29;100934.84;5092734;28;20044;-54
2022/08/19 05:31:21;;;;;;;94.60;51.75;;;;;;;18.54;85.61;100952.03;5092513;28;20044;-54
2022/08/19 05:33:48;;;;;;;86.25;50.95;;;;;;;18.55;85.86;100948.28;5093316;28;20044;-54
2022/08/19 05:36:15;;;;;;;93.30;52.75;;;;;;;18.40;86.85;100959.19;5092954;28;20480;-54
2022/08/19 05:38:42;;;;;;;91.10;51.65;;;;;;;18.39;87.18;100956.69;5092491;28;20131;-54
2022/08/19 05:41:10;;;;;;;95.68;52.50;;;;;;;18.33;87.65;100955.66;5092704;28;20413;-54
2022/08/19 05:43:37;;;;;;;87.63;49.88;;;;;;;18.37;87.68;100961.44;5092908;28;20058;-54
2022/08/19 05:46:06;;;;;;;87.63;51.00;;;;;;;18.50;86.88;100955.31;5092433;28;20040;-54
2022/08/19 05:48:33;;;;;;;83.90;49.72;;;;;;;18.52;86.89;100958.59;5091890;28;20046;-55
2022/08/19 05:51:08;;;;;;;87.07;51.20;;;;;;;18.52;87.18;100955.94;5092199;28;20055;-53
2022/08/19 05:53:35;;;;;;;84.72;50.45;;;;;;;18.61;87.11;100950.19;5092540;28;20051;-54
2022/08/19 05:56:07;;;;;;;83.70;49.38;;;;;;;18.80;86.30;100945.88;5074888;28;20051;-55
2022/08/19 05:58:36;;;;;;;93.38;52.33;;;;;;;18.78;85.78;100945.25;5092586;28;20036;-55
2022/08/19 06:01:05;;;;;;;91.00;52.67;;;;;;;18.75;86.34;100942.16;5092718;28;20062;-54
2022/08/19 06:03:33;;;;;;;92.00;52.20;;;;;;;18.69;86.38;100946.47;5092436;28;20543;-55
2022/08/19 06:06:00;;;;;;;85.10;51.25;;;;;;;18.63;87.00;100939.25;5093036;28;20044;-54
2022/08/19 06:08:27;;;;;;;88.07;51.92;;;;;;;18.71;86.86;100930.16;5085016;28;20085;-55
2022/08/19 06:10:54;;;;;;;91.95;52.55;;;;;;;18.79;86.34;100936.19;5091519;28;20494;-53
2022/08/19 06:13:23;;;;;;;93.63;52.30;;;;;;;18.67;87.29;100939.66;5092937;28;20098;-55
2022/08/19 06:15:50;;;;;;;99.35;52.47;;;;;;;18.74;87.16;100933.28;5092747;28;20224;-54
2022/08/19 06:18:16;;;;;;;94.00;52.60;;;;;;;18.70;87.30;100942.78;5092970;28;20093;-54
2022/08/19 06:20:43;;;;;;;88.85;51.90;;;;;;;18.77;87.33;100951.69;5092536;28;20374;-54
2022/08/19 06:23:22;;;;;;;92.05;51.38;;;;;;;18.74;86.99;100949.41;4965970;28;20055;-55
2022/08/19 06:25:49;;;;;;;94.85;51.95;;;;;;;18.78;87.13;100941.75;5094939;28;20524;-54
2022/08/19 06:28:16;;;;;;;87.57;51.63;;;;;;;18.85;86.47;100939.13;5096503;28;20066;-54
2022/08/19 06:30:44;;;;;;;85.13;52.85;;;;;;;18.78;87.01;100931.81;5095767;28;20123;-54
2022/08/19 06:33:11;;;;;;;93.43;54.97;;;;;;;18.91;86.23;100933.75;5095972;28;20055;-54
2022/08/19 06:35:40;;;;;;;88.00;53.13;;;;;;;18.86;86.11;100938.91;5096262;28;20043;-54
2022/08/19 06:38:09;;;;;;;94.72;52.63;;;;;;;18.84;86.58;100940.16;5095977;28;20052;-55
2022/08/19 06:40:37;;;;;;;101.10;53.65;;;;;;;18.92;86.40;100932.72;5095884;28;20072;-54
2022/08/19 06:43:04;;;;;;;81.68;51.42;;;;;;;18.99;86.32;100936.25;5096547;28;20044;-54
2022/08/19 06:45:31;;;;;;;87.93;50.58;;;;;;;18.99;85.92;100943.47;5096269;28;20056;-54
2022/08/19 06:47:58;;;;;;;83.93;50.63;;;;;;;19.10;85.31;100942.03;5095999;28;20131;-54
2022/08/19 06:50:24;;;;;;;84.35;51.10;;;;;;;19.04;85.69;100946.38;5096061;28;20097;-54
2022/08/19 06:52:51;;;;;;;85.88;51.08;;;;;;;19.15;85.13;100945.75;5096115;28;20135;-55
2022/08/19 06:55:18;;;;;;;91.68;50.65;;;;;;;19.14;85.20;100941.44;5096178;28;20059;-55
2022/08/19 06:57:45;;;;;;;85.72;49.97;;;;;;;19.13;85.27;100944.31;5095949;28;20449;-53
2022/08/19 07:00:13;;;;;;;87.15;49.88;;;;;;;19.24;84.92;100945.56;5094196;28;20043;-55
2022/08/19 07:02:42;;;;;;;92.60;50.25;;;;;;;19.23;84.61;100955.50;5095825;28;20509;-54
2022/08/19 07:05:10;;;;;;;83.65;49.40;;;;;;;19.12;85.02;100953.44;5095396;28;20044;-55
2022/08/19 07:07:36;;;;;;;86.07;50.22;;;;;;;19.30;84.50;100955.50;5095471;28;20052;-54
2022/08/19 07:10:04;;;;;;;82.47;50.95;;;;;;;19.18;85.62;100949.91;5082673;28;20477;-54
2022/08/19 07:12:34;;;;;;;99.22;50.80;;;;;;;19.30;84.78;100948.28;5092537;28;20043;-52
2022/08/19 07:15:00;;;;;;;95.60;48.70;;;;;;;19.36;84.50;100950.13;5095240;28;20093;-54
2022/08/19 07:17:27;;;;;;;83.28;48.65;;;;;;;19.36;84.67;100946.63;5095612;28;20532;-54
2022/08/19 07:19:54;;;;;;;84.18;48.08;;;;;;;19.30;85.25;100952.81;5095262;28;20048;-55
2022/08/19 07:22:23;;;;;;;88.25;47.72;;;;;;;19.25;86.02;100964.19;5020141;28;20604;-55
2022/08/19 07:24:52;;;;;;;80.93;46.78;;;;;;;19.33;84.84;100969.34;5052792;28;20063;-55
2022/08/19 07:27:19;;;;;;;72.47;43.38;;;;;;;19.58;83.18;100968.75;5095178;28;20481;-53
2022/08/19 07:29:46;;;;;;;80.72;41.85;;;;;;;19.54;83.62;100970.19;5095111;28;20036;-53
2022/08/19 07:32:13;;;;;;;74.45;39.22;;;;;;;19.69;82.61;100975.34;5095622;28;20485;-53
2022/08/19 07:34:40;;;;;;;72.00;41.65;;;;;;;19.70;82.74;100971.63;5093241;28;20040;-54
2022/08/19 07:37:07;;;;;;;78.03;41.00;;;;;;;19.78;83.02;100978.69;5095327;28;20055;-53
2022/08/19 07:39:36;;;;;;;71.28;37.53;;;;;;;19.89;83.02;100981.56;5095306;28;20040;-53
2022/08/19 07:42:08;;;;;;;60.92;35.05;;;;;;;19.97;82.62;100979.69;5095467;28;20050;-54
2022/08/19 07:44:36;;;;;;;57.42;32.95;;;;;;;20.28;80.65;100981.66;5093887;28;20109;-53
2022/08/19 07:47:03;;;;;;;56.15;30.60;;;;;;;20.37;79.74;100990.34;5095211;28;20120;-55
2022/08/19 07:49:31;;;;;;;56.92;29.40;;;;;;;20.66;80.05;100995.22;5095133;28;20529;-53
2022/08/19 07:52:02;;;;;;;57.65;31.88;;;;;;;20.86;78.11;101005.91;5095279;28;20047;-53
2022/08/19 07:54:34;;;;;;;50.47;29.02;;;;;;;20.96;75.89;101005.44;5095190;28;20058;-56
2022/08/19 07:57:01;;;;;;;;;;;;;;;20.99;76.25;100999.63;5095437;28;20048;-53
2022/08/19 07:59:28;;;;;;;55.28;30.05;;;;;;;21.07;76.45;101003.94;5094913;28;19969;-52
2022/08/19 08:01:56;;;;;;;53.28;31.17;;;;;;;21.05;76.43;101006.84;5095135;28;20045;-53
2022/08/19 08:09:56;;;;;;;70.43;36.03;;;;;;;;;;5094602;28;20504;-53
2022/08/19 08:12:28;;;;;;;66.68;36.85;;;;;;;21.25;76.70;101014.00;5094774;28;20076;-54
2022/08/19 08:15:04;;;;;;;71.07;37.15;;;;;;;21.13;76.46;101021.94;5091200;28;20160;-54
2022/08/19 08:17:31;;;;;;;74.90;39.22;;;;;;;21.02;76.54;101023.44;5091309;28;20373;-54
2022/08/19 08:19:59;;;;;;;78.30;43.55;;;;;;;21.06;76.44;101023.84;5094447;28;20074;-53
2022/08/19 08:25:16;;;;;;;83.30;43.80;;;;;;;21.42;75.33;101016.97;5016063;28;20043;-55
2022/08/19 08:27:45;;;;;;;86.28;42.90;;;;;;;21.62;74.75;101016.84;5093110;28;20044;-54
2022/08/19 08:30:16;;;;;;;84.95;46.35;;;;;;;21.62;74.14;101023.06;5093696;28;20048;-53
2022/08/19 08:32:45;;;;;;;89.05;46.92;;;;;;;21.76;74.03;101028.34;5094263;28;20039;-54
2022/08/19 08:35:16;;;;;;;95.65;47.80;;;;;;;21.91;73.49;101034.22;5094212;28;20501;-55
2022/08/19 08:37:44;;;;;;;85.65;47.38;;;;;;;21.84;72.68;101033.47;5093889;28;20056;-52
2022/08/19 08:43:00;;;;;;;89.03;45.67;;;;;;;21.88;72.47;101025.75;5110846;27;20383;-52
2022/08/19 08:45:36;;;;;;;88.93;47.05;;;;;;;21.99;71.81;101031.25;5110949;28;20044;-53
2022/08/19 08:48:15;;;;;;;95.07;48.38;;;;;;;21.76;72.10;101015.69;5109859;28;20548;-53
2022/08/19 08:50:45;;;;;;;89.28;45.83;;;;;;;21.85;71.73;101018.94;5110777;28;20523;-52
2022/08/19 08:53:14;;;;;;;69.82;41.33;;;;;;;21.92;71.63;101014.28;5111113;28;20105;-53
2022/08/19 08:55:41;;;;;;;78.90;43.17;;;;;;;22.01;69.69;101023.75;5110790;28;20044;-52
2022/08/19 08:58:25;;;;;;;75.30;42.75;;;;;;;22.01;69.12;101015.66;5110884;28;20060;-53
2022/08/19 09:00:52;;;;;;;74.57;41.17;;;;;;;22.00;69.35;101018.56;5110683;28;20445;-54
2022/08/19 09:03:23;;;;;;;70.55;38.53;;;;;;;21.96;68.78;101020.06;5110377;28;20485;-52
2022/08/19 09:05:55;;;;;;;;;;;;;;;22.01;68.15;101022.91;5111317;28;20126;-54
2022/08/19 09:11:30;;;;;;;54.83;31.77;;;;;;;22.39;65.22;101020.06;5111157;27;20391;-55
2022/08/19 09:14:20;;;;;;;58.53;33.35;;;;;;;22.65;65.09;101014.53;5109862;28;20077;-54
2022/08/19 09:17:07;;;;;;;51.85;28.33;;;;;;;22.69;62.74;101018.44;5110762;27;20518;-54
2022/08/19 09:19:48;;;;;;;46.13;26.35;;;;;;;22.85;62.15;101017.81;5111338;28;20040;-54
2022/08/19 09:22:15;;;;;;;39.45;24.08;;;;;;;22.91;62.16;101021.47;5045765;28;20564;-54
2022/08/19 09:24:42;;;;;;;43.83;25.13;;;;;;;23.09;61.94;101020.63;5040708;28;20135;-53
2022/08/19 09:27:09;;;;;;;46.05;27.92;;;;;;;23.08;61.14;101016.28;5107454;28;20135;-53
2022/08/19 09:29:36;;;;;;;63.28;28.65;;;;;;;23.18;60.77;101022.78;5110672;28;20036;-51
2022/08/19 09:32:03;;;;;;;50.80;27.17;;;;;;;23.30;60.32;101020.13;5110350;28;20058;-53
2022/08/19 09:34:32;;;;;;;48.70;27.05;;;;;;;23.28;59.93;101021.38;5110550;28;20043;-52
2022/08/19 09:36:59;;;;;;;41.42;24.52;;;;;;;23.21;60.67;101016.06;5110670;28;20181;-53
2022/08/19 09:39:26;;;;;;;44.60;25.75;;;;;;;23.29;60.85;101015.75;5110760;28;20089;-53
2022/08/19 09:41:53;;;;;;;38.05;23.30;;;;;;;23.43;59.73;101024.50;5110744;28;20040;-53
2022/08/19 09:44:20;;;;;;;41.55;25.50;;;;;;;23.63;58.71;101020.59;5110432;28;20051;-52
2022/08/19 09:46:46;;;;;;;44.83;24.02;;;;;;;23.58;58.44;101022.16;5110426;28;20500;-53
2022/08/19 09:49:14;;;;;;;43.60;25.48;;;;;;;23.78;58.43;101018.28;5110554;28;20110;-54
2022/08/19 09:51:41;;;;;;;42.22;23.88;;;;;;;24.11;57.47;101012.28;5110341;28;20397;-52
2022/08/19 09:54:08;;;;;;;38.85;23.27;;;;;;;24.70;56.57;101008.63;5110495;28;20050;-52
2022/08/19 09:56:35;;;;;;;40.92;22.25;;;;;;;25.13;54.41;101014.56;5110385;28;20044;-54
2022/08/19 09:59:03;;;;;;;36.47;22.98;;;;;;;25.38;52.61;101008.78;5110185;28;20127;-53
2022/08/19 10:01:32;;;;;;;38.28;22.65;;;;;;;25.55;52.41;101015.03;5110098;28;20438;-54
2022/08/19 10:04:01;;;;;;;35.10;21.35;;;;;;;25.72;52.41;101014.19;5109854;28;20176;-54
2022/08/19 10:06:32;;;;;;;33.88;20.20;;;;;;;25.65;52.17;101014.38;5109993;28;20054;-53
2022/08/19 10:08:59;;;;;;;36.90;20.83;;;;;;;25.50;52.05;101014.94;5108839;28;20048;-53
2022/08/19 10:11:27;;;;;;;32.25;21.05;;;;;;;25.17;52.31;101013.00;5109926;28;20093;-53
2022/08/19 10:13:54;;;;;;;37.47;21.58;;;;;;;25.17;53.17;101011.09;5109636;28;20046;-54
2022/08/19 10:16:23;;;;;;;36.42;20.33;;;;;;;25.41;53.04;101005.56;5109924;28;20039;-53
2022/08/19 10:18:51;;;;;;;39.13;20.90;;;;;;;25.48;51.87;101011.66;5109985;28;20042;-53
2022/08/19 10:21:22;;;;;;;32.83;20.17;;;;;;;25.35;52.21;101020.13;5103145;28;20040;-53
2022/08/19 10:23:51;;;;;;;31.95;18.10;;;;;;;25.85;52.55;101001.09;4965072;28;20446;-54
2022/08/19 10:26:21;;;;;;;33.45;19.67;;;;;;;25.53;52.29;101003.59;5095841;28;20446;-53
2022/08/19 10:28:49;;;;;;;34.10;20.55;;;;;;;25.30;52.42;100999.16;5096025;28;20044;-53
2022/08/19 10:31:20;;;;;;;31.65;18.08;;;;;;;25.90;52.24;100991.38;5092812;28;20097;-54
2022/08/19 10:33:47;;;;;;;29.15;17.40;;;;;;;26.35;50.56;100988.47;5095507;28;20052;-54
2022/08/19 10:36:19;;;;;;;29.25;16.60;;;;;;;26.59;48.99;100994.44;5095537;28;20067;-54
2022/08/19 10:38:48;;;;;;;;;;;;;;;26.76;48.15;100994.41;5092849;28;20032;-53
2022/08/19 10:41:19;;;;;;;27.70;16.20;;;;;;;26.65;48.07;100991.81;5095496;28;20289;-53
2022/08/19 10:43:47;;;;;;;28.80;14.40;;;;;;;26.77;48.08;100996.03;5096051;28;20507;-54
2022/08/19 10:46:15;;;;;;;22.40;13.50;;;;;;;26.66;48.13;100990.75;5095621;28;20080;-54
2022/08/19 10:48:43;;;;;;;29.27;13.98;;;;;;;26.81;47.68;100996.34;5095762;28;20486;-53
2022/08/19 10:53:59;;;;;;;27.33;15.02;;;;;;;25.85;48.96;100992.13;5095453;28;20051;-53
2022/08/19 10:56:58;;;;;;;31.83;14.95;;;;;;;25.64;50.43;100999.16;5095542;28;20130;-53
2022/08/19 10:59:15;;;;;;;26.90;14.55;;;;;;;25.71;50.89;100996.28;5095328;28;20044;-54
2022/08/19 11:01:44;;;;;;;28.30;15.68;;;;;;;25.47;50.79;100991.84;5095443;28;20072;-54
2022/08/19 11:04:13;;;;;;;22.98;13.70;;;;;;;25.60;51.02;100981.72;5094866;28;20048;-53
2022/08/19 11:06:43;;;;;;;33.67;15.70;;;;;;;25.60;51.36;100990.66;5095134;28;20040;-55
2022/08/19 11:09:11;;;;;;;26.98;16.48;;;;;;;25.67;51.01;100985.88;5095120;28;20472;-53
2022/08/19 11:11:40;;;;;;;34.08;16.88;;;;;;;25.89;49.53;100976.13;5095517;28;20126;-55
2022/08/19 11:14:10;;;;;;;27.75;16.17;;;;;;;26.09;49.14;100990.03;5095158;28;20519;-53
2022/08/19 11:16:39;;;;;;;24.95;13.93;;;;;;;26.17;49.57;100983.34;5095451;28;20086;-54
2022/08/19 11:19:07;;;;;;;25.33;14.63;;;;;;;26.44;47.98;100989.66;5094994;28;20043;-54
2022/08/19 11:21:38;;;;;;;26.48;14.52;;;;;;;26.10;47.83;100986.22;5095256;28;20067;-53
2022/08/19 11:24:09;;;;;;;33.08;17.63;;;;;;;25.81;48.90;100994.53;4974002;28;20052;-53
2022/08/19 11:26:37;;;;;;;26.48;17.15;;;;;;;25.88;48.48;100988.09;5095094;28;20045;-52
2022/08/19 11:29:11;;;;;;;32.17;15.10;;;;;;;26.09;48.91;100981.03;5093587;28;20048;-54
2022/08/19 11:31:39;;;;;;;26.80;15.85;;;;;;;26.62;47.53;100983.09;5094149;28;20098;-53
2022/08/19 11:34:09;;;;;;;27.73;14.75;;;;;;;26.29;47.99;100978.59;5093703;28;20784;-53
2022/08/19 11:36:40;;;;;;;25.85;14.25;;;;;;;25.94;48.41;100984.38;5094842;28;20556;-53
2022/08/19 11:39:13;;;;;;;23.80;13.23;;;;;;;25.52;49.27;100977.50;5095018;28;20052;-54
2022/08/19 11:41:40;;;;;;;27.20;10.55;;;;;;;26.02;48.82;100973.09;5090096;28;20044;-54
2022/08/19 11:44:08;;;;;;;21.85;11.32;;;;;;;26.49;47.37;100969.03;5093447;28;20071;-54
2022/08/19 11:46:36;;;;;;;21.30;11.10;;;;;;;26.89;45.26;100963.22;5094468;28;20043;-54
2022/08/19 11:49:05;;;;;;;25.45;11.98;;;;;;;26.92;44.15;100968.13;5091021;28;20127;-53